createdAt,value
2017-12-04T10:43:16.600Z,959.16
2017-12-04T10:44:16.584Z,959.19
2017-12-04T10:45:16.572Z,959.24
2017-12-04T10:46:16.551Z,959.25
2017-12-04T10:47:16.531Z,959.18
2017-12-04T10:48:16.513Z,959.25
2017-12-04T10:49:16.496Z,959.25
2017-12-04T10:50:16.478Z,959.24
2017-12-04T10:51:16.460Z,959.23
2017-12-04T10:52:16.457Z,959.2
2017-12-04T10:53:16.425Z,959.18
2017-12-04T10:54:16.410Z,959.21
2017-12-04T10:55:16.392Z,959.17
2017-12-04T10:56:16.394Z,959.21
2017-12-04T10:57:16.356Z,959.2
2017-12-04T10:58:16.344Z,959.19
2017-12-04T10:59:16.320Z,959.2
2017-12-04T11:00:16.302Z,959.21
2017-12-04T11:01:16.284Z,959.22
2017-12-04T11:02:16.274Z,959.2
2017-12-04T11:03:16.249Z,959.22
2017-12-04T11:04:16.232Z,959.21
2017-12-04T11:05:16.218Z,959.18
2017-12-04T11:06:16.197Z,959.18
2017-12-04T11:07:16.180Z,959.14
2017-12-04T11:08:16.162Z,959.15
2017-12-04T11:09:16.145Z,959.18
2017-12-04T11:10:16.128Z,959.18
2017-12-04T11:11:16.110Z,959.19
2017-12-04T11:12:16.091Z,959.24
2017-12-04T11:13:16.075Z,959.22
2017-12-04T11:14:16.058Z,959.24
2017-12-04T11:15:16.039Z,959.19
2017-12-04T11:16:16.024Z,959.22
2017-12-04T11:17:16.005Z,959.22
2017-12-04T11:18:15.988Z,959.23
2017-12-04T11:19:15.969Z,959.27
2017-12-04T11:20:15.953Z,959.29
2017-12-04T11:21:15.936Z,959.25
2017-12-04T11:22:15.918Z,959.28
2017-12-04T11:23:15.898Z,959.29
2017-12-04T11:24:15.883Z,959.25
2017-12-04T11:25:15.867Z,959.27
2017-12-04T11:26:15.848Z,959.29
2017-12-04T11:27:15.832Z,959.34
2017-12-04T11:28:15.814Z,959.29
2017-12-04T11:29:15.801Z,959.35
2017-12-04T11:30:15.779Z,959.35
2017-12-04T11:31:15.760Z,959.36
2017-12-04T11:32:15.750Z,959.39
2017-12-04T11:33:15.727Z,959.44
2017-12-04T11:34:15.708Z,959.46
2017-12-04T11:35:15.702Z,959.51
2017-12-04T11:36:15.674Z,959.51
2017-12-04T11:37:15.655Z,959.5
2017-12-04T11:38:15.638Z,959.49
2017-12-04T11:39:15.624Z,959.46
2017-12-04T11:40:15.606Z,959.42
2017-12-04T11:41:15.592Z,959.51
2017-12-04T11:42:15.573Z,959.47
2017-12-04T11:43:15.553Z,959.39
2017-12-04T11:44:15.534Z,959.46
2017-12-04T11:45:15.517Z,959.44
2017-12-04T11:46:15.499Z,959.44
2017-12-04T11:47:15.482Z,959.45
2017-12-04T11:48:15.465Z,959.42
2017-12-04T11:49:15.448Z,959.44
2017-12-04T11:50:15.432Z,959.41
2017-12-04T11:51:15.415Z,959.38
2017-12-04T11:52:15.394Z,959.31
2017-12-04T11:53:15.403Z,959.38
2017-12-04T11:54:15.360Z,959.44
2017-12-04T11:55:15.343Z,959.37
2017-12-04T11:56:15.325Z,959.38
2017-12-04T11:57:15.308Z,959.43
2017-12-04T11:58:15.293Z,959.5
2017-12-04T11:59:15.272Z,959.45
2017-12-04T12:00:15.255Z,959.41
2017-12-04T12:01:15.238Z,959.42
2017-12-04T12:02:15.221Z,959.46
2017-12-04T12:03:15.202Z,959.43
2017-12-04T12:04:15.185Z,959.43
2017-12-04T12:05:15.168Z,959.41
2017-12-04T12:06:15.173Z,959.47
2017-12-04T12:07:15.133Z,959.43
2017-12-04T12:08:15.117Z,959.38
2017-12-04T12:09:15.098Z,959.4
2017-12-04T12:10:15.096Z,959.38
2017-12-04T12:11:15.118Z,959.35
2017-12-04T12:12:15.051Z,959.32
2017-12-04T12:13:15.031Z,959.31
2017-12-04T12:14:15.012Z,959.36
2017-12-04T12:15:14.995Z,959.38
2017-12-04T12:16:14.978Z,959.45
2017-12-04T12:17:14.961Z,959.4
2017-12-04T12:18:14.949Z,959.39
2017-12-04T12:19:14.935Z,959.44
2017-12-04T12:20:14.910Z,959.41
2017-12-04T12:21:14.897Z,959.43
2017-12-04T12:22:14.876Z,959.41
2017-12-04T12:23:14.859Z,959.41
2017-12-04T12:24:14.841Z,959.44
2017-12-04T12:25:14.823Z,959.44
2017-12-04T12:26:14.807Z,959.51
2017-12-04T12:27:14.788Z,959.53
2017-12-04T12:28:14.792Z,959.56
2017-12-04T12:29:14.753Z,959.55
2017-12-04T12:30:14.738Z,959.58
2017-12-04T12:31:14.722Z,959.56
2017-12-04T12:32:14.704Z,959.59
2017-12-04T12:33:14.684Z,959.58
2017-12-04T12:34:14.669Z,959.58
2017-12-04T12:35:14.665Z,959.54
2017-12-04T12:36:14.634Z,959.57
2017-12-04T12:37:14.618Z,959.55
2017-12-04T12:38:14.600Z,959.51
2017-12-04T12:39:14.582Z,959.53
2017-12-04T12:40:14.566Z,959.5
2017-12-04T12:41:14.547Z,959.48
2017-12-04T12:42:14.530Z,959.48
2017-12-04T12:43:14.521Z,959.51
2017-12-04T12:44:14.497Z,959.49
2017-12-04T12:45:14.479Z,959.47
2017-12-04T12:46:14.463Z,959.5
2017-12-04T12:47:14.444Z,959.46
2017-12-04T12:48:14.427Z,959.47
2017-12-04T12:49:14.411Z,959.42
2017-12-04T12:50:14.392Z,959.46
2017-12-04T12:51:14.376Z,959.42
2017-12-04T12:52:14.363Z,959.45
2017-12-04T12:53:14.341Z,959.48
2017-12-04T12:54:14.323Z,959.44
2017-12-04T12:55:14.306Z,959.4
2017-12-04T12:56:14.290Z,959.37
2017-12-04T12:57:14.287Z,959.4
2017-12-04T12:58:14.253Z,959.37
2017-12-04T12:59:14.238Z,959.39
2017-12-04T13:00:14.220Z,959.38
2017-12-04T13:01:14.203Z,959.41
2017-12-04T13:02:14.185Z,959.37
2017-12-04T13:03:14.169Z,959.42
2017-12-04T13:04:14.152Z,959.46
2017-12-04T13:05:14.135Z,959.51
2017-12-04T13:06:14.117Z,959.51
2017-12-04T13:07:14.100Z,959.51
2017-12-04T13:08:14.083Z,959.47
2017-12-04T13:09:14.067Z,959.5
2017-12-04T13:10:14.049Z,959.51
2017-12-04T13:11:14.031Z,959.53
2017-12-04T13:12:14.027Z,959.51
2017-12-04T13:13:13.996Z,959.48
2017-12-04T13:14:13.984Z,959.44
2017-12-04T13:15:13.963Z,959.46
2017-12-04T13:16:13.946Z,959.48
2017-12-04T13:17:13.928Z,959.48
2017-12-04T13:18:13.912Z,959.49
2017-12-04T13:19:13.895Z,959.54
2017-12-04T13:20:13.877Z,959.51
2017-12-04T13:21:13.860Z,959.54
2017-12-04T13:22:13.846Z,959.52
2017-12-04T13:23:13.826Z,959.52
2017-12-04T13:24:13.809Z,959.53
2017-12-04T13:25:13.792Z,959.51
2017-12-04T13:26:13.775Z,959.58
2017-12-04T13:27:13.757Z,959.63
2017-12-04T13:28:13.741Z,959.6
2017-12-04T13:29:13.724Z,959.58
2017-12-04T13:30:13.707Z,959.6
2017-12-04T13:31:13.689Z,959.65
2017-12-04T13:32:13.672Z,959.64
2017-12-04T13:33:13.656Z,959.64
2017-12-04T13:34:13.638Z,959.64
2017-12-04T13:35:13.620Z,959.62
2017-12-04T13:36:13.604Z,959.63
2017-12-04T13:37:13.586Z,959.68
2017-12-04T13:38:13.574Z,959.72
2017-12-04T13:39:13.551Z,959.7
2017-12-04T13:40:13.534Z,959.72
2017-12-04T13:41:13.516Z,959.72
2017-12-04T13:42:13.499Z,959.76
2017-12-04T13:43:13.499Z,959.78
2017-12-04T13:44:13.470Z,959.76
2017-12-04T13:45:13.447Z,959.77
2017-12-04T13:46:13.430Z,959.77
2017-12-04T13:47:13.411Z,959.77
2017-12-04T13:48:13.394Z,959.79
2017-12-04T13:49:13.375Z,959.8
2017-12-04T13:50:13.359Z,959.83
2017-12-04T13:51:13.341Z,959.84
2017-12-04T13:52:13.326Z,959.85
2017-12-04T13:53:13.307Z,959.83
2017-12-04T13:54:13.290Z,959.92
2017-12-04T13:55:13.273Z,959.87
2017-12-04T13:56:13.254Z,959.88
2017-12-04T13:57:13.238Z,959.9
2017-12-04T13:58:13.221Z,959.87
2017-12-04T13:59:13.203Z,959.82
2017-12-04T14:00:13.185Z,959.81
2017-12-04T14:01:13.167Z,959.86
2017-12-04T14:02:13.150Z,959.86
2017-12-04T14:03:13.132Z,959.85
2017-12-04T14:04:13.118Z,959.92
2017-12-04T14:05:13.123Z,959.95
2017-12-04T14:06:13.080Z,959.97
2017-12-04T14:07:13.061Z,960.03
2017-12-04T14:08:13.046Z,959.99
2017-12-04T14:09:13.029Z,959.94
2017-12-04T14:10:13.011Z,959.93
2017-12-04T14:11:12.994Z,959.94
2017-12-04T14:12:12.974Z,959.98
2017-12-04T14:13:12.964Z,959.93
2017-12-04T14:14:12.939Z,960
2017-12-04T14:15:12.923Z,960.03
2017-12-04T14:16:12.905Z,960.03
2017-12-04T14:17:12.887Z,960
2017-12-04T14:18:12.869Z,959.98
2017-12-04T14:19:12.852Z,960.03
2017-12-04T14:20:12.835Z,960.04
2017-12-04T14:21:12.818Z,960.05
2017-12-04T14:22:12.798Z,960.04
2017-12-04T14:23:12.781Z,960.06
2017-12-04T14:24:12.763Z,960.04
2017-12-04T14:25:12.746Z,960.01
2017-12-04T14:26:12.727Z,960.12
2017-12-04T14:27:12.709Z,960.09
2017-12-04T14:28:12.693Z,960.16
2017-12-04T14:29:12.675Z,960.18
2017-12-04T14:30:12.667Z,960.14
2017-12-04T14:31:12.640Z,960.08
2017-12-04T14:32:12.623Z,960.1
2017-12-04T14:33:12.602Z,960.16
2017-12-04T14:34:12.596Z,960.2
2017-12-04T14:35:12.584Z,960.22
2017-12-04T14:36:12.550Z,960.31
2017-12-04T14:37:12.533Z,960.31
2017-12-04T14:38:12.515Z,960.31
2017-12-04T14:39:12.497Z,960.26
2017-12-04T14:40:12.478Z,960.32
2017-12-04T14:41:12.462Z,960.34
2017-12-04T14:42:12.445Z,960.27
2017-12-04T14:43:12.433Z,960.31
2017-12-04T14:44:12.409Z,960.28
2017-12-04T14:45:12.390Z,960.26
2017-12-04T14:46:12.373Z,960.33
2017-12-04T14:47:12.354Z,960.34
2017-12-04T14:48:12.337Z,960.37
2017-12-04T14:49:12.322Z,960.37
2017-12-04T14:50:12.302Z,960.35
2017-12-04T14:51:25.021Z,960.42
2017-12-04T14:52:12.288Z,960.37
2017-12-04T14:53:12.249Z,960.38
2017-12-04T14:54:12.232Z,960.4
2017-12-04T14:55:12.213Z,960.41
2017-12-04T14:56:12.195Z,960.43
2017-12-04T14:57:12.178Z,960.44
2017-12-04T14:58:12.159Z,960.43
2017-12-04T14:59:12.147Z,960.48
2017-12-04T15:00:12.126Z,960.47
2017-12-04T15:01:12.108Z,960.47
2017-12-04T15:02:12.092Z,960.52
2017-12-04T15:03:12.072Z,960.58
2017-12-04T15:04:12.054Z,960.56
2017-12-04T15:05:12.037Z,960.55
2017-12-04T15:06:12.018Z,960.57
2017-12-04T15:07:12.001Z,960.55
2017-12-04T15:08:11.984Z,960.56
2017-12-04T15:09:11.964Z,960.54
2017-12-04T15:10:11.946Z,960.57
2017-12-04T15:11:11.933Z,960.6
2017-12-04T15:12:11.913Z,960.61
2017-12-04T15:13:11.896Z,960.65
2017-12-04T15:14:11.876Z,960.63
2017-12-04T15:15:11.858Z,960.65
2017-12-04T15:16:11.842Z,960.65
2017-12-04T15:17:11.822Z,960.7
2017-12-04T15:18:11.810Z,960.66
2017-12-04T15:19:11.788Z,960.7
2017-12-04T15:20:11.769Z,960.71
2017-12-04T15:21:11.751Z,960.7
2017-12-04T15:22:11.734Z,960.74
2017-12-04T15:23:11.720Z,960.7
2017-12-04T15:24:11.699Z,960.7
2017-12-04T15:25:11.680Z,960.77
2017-12-04T15:26:11.675Z,960.76
2017-12-04T15:27:11.647Z,960.7
2017-12-04T15:28:11.629Z,960.75
2017-12-04T15:29:11.612Z,960.68
2017-12-04T15:30:11.594Z,960.72
2017-12-04T15:31:11.575Z,960.81
2017-12-04T15:32:11.558Z,960.82
2017-12-04T15:33:11.541Z,960.8
2017-12-04T15:34:11.523Z,960.78
2017-12-04T15:35:11.505Z,960.81
2017-12-04T15:36:11.486Z,960.77
2017-12-04T15:37:11.470Z,960.77
2017-12-04T15:38:11.452Z,960.83
2017-12-04T15:39:11.432Z,960.86
2017-12-04T15:40:11.473Z,960.91
2017-12-04T15:41:11.400Z,960.85
2017-12-04T15:42:11.381Z,960.87
2017-12-04T15:43:11.373Z,960.91
2017-12-04T15:44:11.346Z,960.87
2017-12-04T15:45:11.328Z,960.85
2017-12-04T15:46:11.309Z,960.91
2017-12-04T15:47:11.293Z,960.91
2017-12-04T15:48:11.275Z,960.9
2017-12-04T15:49:11.256Z,960.93
2017-12-04T15:50:11.239Z,960.96
2017-12-04T15:51:11.222Z,960.93
2017-12-04T15:52:11.204Z,960.93
2017-12-04T15:53:11.186Z,960.93
2017-12-04T15:54:11.168Z,960.95
2017-12-04T15:55:11.150Z,960.94
2017-12-04T15:56:11.140Z,960.99
2017-12-04T15:57:11.115Z,961.03
2017-12-04T15:58:11.096Z,961.05
2017-12-04T15:59:11.080Z,961.07
2017-12-04T16:00:11.061Z,961.05
2017-12-04T16:01:11.058Z,961.05
2017-12-04T16:02:11.026Z,961.07
2017-12-04T16:03:11.008Z,961.11
2017-12-04T16:04:10.989Z,961.09
2017-12-04T16:05:10.972Z,961.11
2017-12-04T16:06:10.955Z,961.19
2017-12-04T16:07:10.940Z,961.2
2017-12-04T16:08:10.920Z,961.22
2017-12-04T16:09:10.901Z,961.19
2017-12-04T16:10:10.885Z,961.25
2017-12-04T16:11:10.866Z,961.22
2017-12-04T16:12:10.848Z,961.26
2017-12-04T16:13:10.830Z,961.31
2017-12-04T16:14:10.812Z,961.28
2017-12-04T16:15:10.795Z,961.25
2017-12-04T16:16:10.777Z,961.34
2017-12-04T16:17:10.760Z,961.37
2017-12-04T16:18:10.742Z,961.36
2017-12-04T16:19:10.724Z,961.36
2017-12-04T16:20:10.707Z,961.37
2017-12-04T16:21:10.690Z,961.38
2017-12-04T16:22:10.669Z,961.39
2017-12-04T16:23:10.660Z,961.38
2017-12-04T16:24:10.636Z,961.4
2017-12-04T16:25:10.632Z,961.4
2017-12-04T16:26:10.598Z,961.44
2017-12-04T16:27:10.582Z,961.43
2017-12-04T16:28:10.565Z,961.49
2017-12-04T16:29:10.547Z,961.49
2017-12-04T16:30:10.527Z,961.53
2017-12-04T16:31:10.523Z,961.5
2017-12-04T16:32:10.492Z,961.54
2017-12-04T16:33:10.475Z,961.56
2017-12-04T16:34:10.479Z,961.6
2017-12-04T16:35:10.440Z,961.59
2017-12-04T16:36:10.425Z,961.66
2017-12-04T16:37:10.403Z,961.61
2017-12-04T16:38:10.387Z,961.73
2017-12-04T16:39:10.369Z,961.74
2017-12-04T16:40:10.351Z,961.72
2017-12-04T16:41:10.333Z,961.73
2017-12-04T16:42:10.315Z,961.72
2017-12-04T16:43:10.297Z,961.71
2017-12-04T16:44:10.292Z,961.72
2017-12-04T16:45:10.262Z,961.72
2017-12-04T16:46:10.245Z,961.8
2017-12-04T16:47:10.229Z,961.79
2017-12-04T16:48:10.228Z,961.79
2017-12-04T16:49:10.191Z,961.81
2017-12-04T16:50:10.173Z,961.74
2017-12-04T16:51:10.156Z,961.8
2017-12-04T16:52:10.149Z,961.85
2017-12-04T16:53:10.121Z,961.9
2017-12-04T16:54:10.102Z,961.91
2017-12-04T16:55:10.091Z,961.91
2017-12-04T16:56:10.076Z,961.84
2017-12-04T16:57:10.050Z,961.87
2017-12-04T16:58:10.033Z,961.92
2017-12-04T16:59:10.015Z,961.95
2017-12-04T17:00:10.001Z,961.99
2017-12-04T17:01:09.979Z,961.96
2017-12-04T17:02:09.962Z,961.97
2017-12-04T17:03:09.952Z,961.93
2017-12-04T17:04:09.926Z,961.98
2017-12-04T17:05:09.914Z,962
2017-12-04T17:06:09.890Z,961.99
2017-12-04T17:07:09.874Z,962
2017-12-04T17:08:09.857Z,962.05
2017-12-04T17:09:09.838Z,962.01
2017-12-04T17:10:09.838Z,962.01
2017-12-04T17:11:09.802Z,962.03
2017-12-04T17:12:09.786Z,962.02
2017-12-04T17:13:09.768Z,962.03
2017-12-04T17:14:09.749Z,962.07
2017-12-04T17:15:09.732Z,962.1
2017-12-04T17:16:09.714Z,962.12
2017-12-04T17:17:09.696Z,962.12
2017-12-04T17:18:09.680Z,962.14
2017-12-04T17:19:09.662Z,962.11
2017-12-04T17:20:09.649Z,962.16
2017-12-04T17:21:09.625Z,962.15
2017-12-04T17:22:09.609Z,962.17
2017-12-04T17:23:09.592Z,962.25
2017-12-04T17:24:09.572Z,962.25
2017-12-04T17:25:09.556Z,962.3
2017-12-04T17:26:09.537Z,962.29
2017-12-04T17:27:09.521Z,962.32
2017-12-04T17:28:09.503Z,962.37
2017-12-04T17:29:09.484Z,962.38
2017-12-04T17:30:09.468Z,962.43
2017-12-04T17:31:09.449Z,962.41
2017-12-04T17:32:09.432Z,962.47
2017-12-04T17:33:09.413Z,962.47
2017-12-04T17:34:09.412Z,962.48
2017-12-04T17:35:09.379Z,962.48
2017-12-04T17:36:09.362Z,962.47
2017-12-04T17:37:09.344Z,962.48
2017-12-04T17:38:09.329Z,962.54
2017-12-04T17:39:09.308Z,962.52
2017-12-04T17:40:09.312Z,962.56
2017-12-04T17:41:09.273Z,962.57
2017-12-04T17:42:09.256Z,962.55
2017-12-04T17:43:09.237Z,962.59
2017-12-04T17:44:09.234Z,962.59
2017-12-04T17:45:09.206Z,962.61
2017-12-04T17:46:09.185Z,962.61
2017-12-04T17:47:09.167Z,962.57
2017-12-04T17:48:09.151Z,962.55
2017-12-04T17:49:09.133Z,962.54
2017-12-04T17:50:09.114Z,962.54
2017-12-04T17:51:09.097Z,962.41
2017-12-04T17:52:09.079Z,962.47
2017-12-04T17:53:09.073Z,962.53
2017-12-04T17:54:09.042Z,962.61
2017-12-04T17:55:09.026Z,962.63
2017-12-04T17:56:09.007Z,962.63
2017-12-04T17:57:08.994Z,962.67
2017-12-04T17:58:08.971Z,962.65
2017-12-04T17:59:08.956Z,962.72
2017-12-04T18:00:08.938Z,962.71
2017-12-04T18:01:08.920Z,962.73
2017-12-04T18:02:08.954Z,962.69
2017-12-04T18:03:08.885Z,962.71
2017-12-04T18:04:08.867Z,962.73
2017-12-04T18:05:08.850Z,962.74
2017-12-04T18:06:08.832Z,962.74
2017-12-04T18:07:08.814Z,962.72
2017-12-04T18:08:08.795Z,962.75
2017-12-04T18:09:08.789Z,962.76
2017-12-04T18:10:08.764Z,962.78
2017-12-04T18:11:08.743Z,962.84
2017-12-04T18:12:08.725Z,962.8
2017-12-04T18:13:08.707Z,962.77
2017-12-04T18:14:08.701Z,962.8
2017-12-04T18:15:08.696Z,962.77
2017-12-04T18:16:08.678Z,962.82
2017-12-04T18:17:08.636Z,962.77
2017-12-04T18:18:08.621Z,962.74
2017-12-04T18:19:08.601Z,962.74
2017-12-04T18:20:08.586Z,962.78
2017-12-04T18:21:08.566Z,962.79
2017-12-04T18:22:08.549Z,962.8
2017-12-04T18:23:08.532Z,962.82
2017-12-04T18:24:08.514Z,962.84
2017-12-04T18:25:08.498Z,962.85
2017-12-04T18:26:08.498Z,962.83
2017-12-04T18:27:08.461Z,962.89
2017-12-04T18:28:08.447Z,962.88
2017-12-04T18:29:08.426Z,962.88
2017-12-04T18:30:08.420Z,962.96
2017-12-04T18:31:08.390Z,962.94
2017-12-04T18:32:08.373Z,963
2017-12-04T18:33:08.355Z,962.98
2017-12-04T18:34:08.336Z,962.93
2017-12-04T18:35:08.320Z,962.96
2017-12-04T18:36:08.301Z,962.96
2017-12-04T18:37:08.284Z,962.98
2017-12-04T18:38:08.267Z,963.02
2017-12-04T18:39:08.249Z,963.01
2017-12-04T18:40:08.233Z,963.05
2017-12-04T18:41:08.219Z,963.02
2017-12-04T18:42:08.197Z,963.01
2017-12-04T18:43:08.179Z,962.99
2017-12-04T18:44:08.162Z,963.02
2017-12-04T18:45:08.167Z,963.03
2017-12-04T18:46:08.126Z,963.06
2017-12-04T18:47:08.110Z,963.08
2017-12-04T18:48:08.091Z,963.07
2017-12-04T18:49:08.073Z,963.07
2017-12-04T18:50:08.055Z,963.06
2017-12-04T18:51:08.042Z,963.07
2017-12-04T18:52:08.019Z,963.06
2017-12-04T18:53:08.014Z,963.06
2017-12-04T18:54:07.984Z,963.06
2017-12-04T18:55:07.968Z,963.09
2017-12-04T18:56:07.949Z,963.12
2017-12-04T18:57:07.932Z,963.18
2017-12-04T18:58:07.931Z,963.14
2017-12-04T18:59:07.895Z,963.15
2017-12-04T19:00:07.878Z,963.14
2017-12-04T19:01:07.861Z,963.18
2017-12-04T19:02:07.843Z,963.24
2017-12-04T19:03:07.826Z,963.29
2017-12-04T19:04:07.807Z,963.27
2017-12-04T19:05:07.792Z,963.27
2017-12-04T19:06:07.773Z,963.28
2017-12-04T19:07:07.755Z,963.28
2017-12-04T19:08:07.738Z,963.32
2017-12-04T19:09:07.719Z,963.29
2017-12-04T19:10:07.701Z,963.34
2017-12-04T19:11:07.683Z,963.32
2017-12-04T19:12:07.666Z,963.29
2017-12-04T19:13:07.650Z,963.27
2017-12-04T19:14:07.630Z,963.33
2017-12-04T19:15:07.635Z,963.31
2017-12-04T19:16:07.596Z,963.29
2017-12-04T19:17:07.578Z,963.29
2017-12-04T19:18:07.561Z,963.29
2017-12-04T19:19:07.544Z,963.31
2017-12-04T19:20:07.526Z,963.29
2017-12-04T19:21:07.508Z,963.35
2017-12-04T19:22:07.508Z,963.41
2017-12-04T19:23:07.473Z,963.37
2017-12-04T19:24:07.456Z,963.39
2017-12-04T19:25:07.437Z,963.38
2017-12-04T19:26:07.424Z,963.41
2017-12-04T19:27:07.401Z,963.45
2017-12-04T19:28:07.401Z,963.45
2017-12-04T19:29:07.367Z,963.5
2017-12-04T19:30:07.349Z,963.58
2017-12-04T19:31:07.332Z,963.57
2017-12-04T19:32:07.312Z,963.54
2017-12-04T19:33:07.296Z,963.57
2017-12-04T19:34:07.278Z,963.57
2017-12-04T19:35:07.260Z,963.56
2017-12-04T19:36:07.242Z,963.57
2017-12-04T19:37:07.225Z,963.54
2017-12-04T19:38:07.209Z,963.53
2017-12-04T19:39:07.200Z,963.58
2017-12-04T19:40:07.172Z,963.61
2017-12-04T19:41:07.154Z,963.55
2017-12-04T19:42:07.137Z,963.61
2017-12-04T19:43:07.122Z,963.59
2017-12-04T19:44:07.101Z,963.55
2017-12-04T19:45:07.084Z,963.56
2017-12-04T19:46:07.066Z,963.6
2017-12-04T19:47:07.048Z,963.55
2017-12-04T19:48:07.051Z,963.52
2017-12-04T19:49:07.023Z,963.57
2017-12-04T19:50:07.018Z,963.53
2017-12-04T19:51:06.976Z,963.47
2017-12-04T19:52:06.958Z,963.48
2017-12-04T19:53:06.943Z,963.55
2017-12-04T19:54:06.924Z,963.63
2017-12-04T19:55:06.907Z,963.58
2017-12-04T19:56:06.889Z,963.61
2017-12-04T19:57:06.884Z,963.6
2017-12-04T19:58:06.856Z,963.56
2017-12-04T19:59:06.849Z,963.66
2017-12-04T20:00:06.818Z,963.64
2017-12-04T20:01:06.822Z,963.68
2017-12-04T20:02:06.782Z,963.71
2017-12-04T20:03:06.778Z,963.68
2017-12-04T20:04:06.748Z,963.67
2017-12-04T20:05:06.731Z,963.71
2017-12-04T20:06:06.727Z,963.73
2017-12-04T20:07:06.694Z,963.73
2017-12-04T20:08:06.689Z,963.72
2017-12-04T20:09:06.660Z,963.75
2017-12-04T20:10:06.654Z,963.78
2017-12-04T20:11:06.625Z,963.78
2017-12-04T20:12:06.608Z,963.76
2017-12-04T20:13:06.601Z,963.79
2017-12-04T20:14:06.588Z,963.83
2017-12-04T20:15:06.571Z,963.85
2017-12-04T20:16:06.554Z,963.79
2017-12-04T20:17:06.519Z,963.79
2017-12-04T20:18:06.523Z,963.8
2017-12-04T20:19:06.484Z,963.79
2017-12-04T20:20:06.464Z,963.81
2017-12-04T20:21:06.448Z,963.78
2017-12-04T20:22:06.429Z,963.79
2017-12-04T20:23:06.411Z,963.81
2017-12-04T20:24:06.394Z,963.77
2017-12-04T20:25:06.376Z,963.77
2017-12-04T20:26:06.372Z,963.76
2017-12-04T20:27:06.342Z,963.74
2017-12-04T20:28:06.324Z,963.79
2017-12-04T20:29:06.312Z,963.81
2017-12-04T20:30:06.290Z,963.77
2017-12-04T20:31:06.269Z,963.78
2017-12-04T20:32:06.256Z,963.73
2017-12-04T20:33:06.234Z,963.73
2017-12-04T20:34:06.216Z,963.73
2017-12-04T20:35:06.198Z,963.74
2017-12-04T20:36:06.180Z,963.78
2017-12-04T20:37:06.177Z,963.83
2017-12-04T20:38:06.145Z,963.81
2017-12-04T20:39:06.129Z,963.86
2017-12-04T20:40:06.109Z,963.81
2017-12-04T20:41:06.093Z,963.82
2017-12-04T20:42:06.074Z,963.83
2017-12-04T20:43:06.057Z,963.87
2017-12-04T20:44:06.040Z,963.84
2017-12-04T20:45:06.021Z,963.81
2017-12-04T20:46:06.003Z,963.83
2017-12-04T20:47:05.986Z,963.8
2017-12-04T20:48:05.968Z,963.81
2017-12-04T20:49:05.950Z,963.84
2017-12-04T20:50:05.933Z,963.79
2017-12-04T20:51:05.914Z,963.83
2017-12-04T20:52:05.896Z,963.85
2017-12-04T20:53:05.883Z,963.86
2017-12-04T20:54:05.860Z,963.87
2017-12-04T20:55:05.845Z,963.84
2017-12-04T20:56:05.826Z,963.89
2017-12-04T20:57:05.812Z,963.92
2017-12-04T20:58:05.805Z,963.89
2017-12-04T20:59:05.773Z,963.88
2017-12-04T21:00:05.754Z,963.91
2017-12-04T21:01:05.736Z,963.91
2017-12-04T21:02:05.720Z,963.91
2017-12-04T21:03:05.701Z,963.91
2017-12-04T21:04:05.682Z,963.88
2017-12-04T21:05:05.665Z,963.89
2017-12-04T21:06:05.675Z,963.89
2017-12-04T21:07:05.630Z,963.93
2017-12-04T21:08:05.612Z,963.91
2017-12-04T21:09:05.595Z,963.94
2017-12-04T21:10:05.578Z,963.91
2017-12-04T21:11:05.562Z,963.93
2017-12-04T21:12:05.607Z,963.89
2017-12-04T21:13:05.523Z,963.83
2017-12-04T21:14:05.504Z,963.84
2017-12-04T21:15:05.487Z,963.84
2017-12-04T21:16:05.491Z,963.87
2017-12-04T21:17:05.451Z,963.88
2017-12-04T21:18:05.433Z,963.86
2017-12-04T21:19:05.416Z,963.94
2017-12-04T21:20:05.413Z,963.94
2017-12-04T21:21:05.381Z,963.89
2017-12-04T21:22:05.362Z,963.92
2017-12-04T21:23:05.344Z,963.97
2017-12-04T21:24:05.326Z,963.96
2017-12-04T21:25:05.309Z,964.02
2017-12-04T21:26:05.297Z,963.98
2017-12-04T21:27:05.274Z,964.01
2017-12-04T21:28:05.255Z,964.01
2017-12-04T21:29:05.237Z,964
2017-12-04T21:30:05.219Z,963.99
2017-12-04T21:31:05.202Z,963.95
2017-12-04T21:32:05.192Z,963.94
2017-12-04T21:33:05.166Z,963.87
2017-12-04T21:34:05.148Z,963.87
2017-12-04T21:35:05.139Z,963.94
2017-12-04T21:36:05.117Z,963.96
2017-12-04T21:37:05.094Z,964.01
2017-12-04T21:38:05.077Z,963.99
2017-12-04T21:39:05.060Z,963.99
2017-12-04T21:40:05.040Z,964.02
2017-12-04T21:41:05.028Z,964.02
2017-12-04T21:42:05.005Z,964.06
2017-12-04T21:43:04.987Z,964.08
2017-12-04T21:44:04.969Z,964.1
2017-12-04T21:45:04.966Z,964.12
2017-12-04T21:46:04.943Z,964.19
2017-12-04T21:47:04.916Z,964.2
2017-12-04T21:48:04.900Z,964.2
2017-12-04T21:49:04.900Z,964.26
2017-12-04T21:50:04.864Z,964.26
2017-12-04T21:51:04.847Z,964.31
2017-12-04T21:52:04.829Z,964.31
2017-12-04T21:53:04.812Z,964.31
2017-12-04T21:54:04.794Z,964.36
2017-12-04T21:55:04.776Z,964.34
2017-12-04T21:56:04.762Z,964.29
2017-12-04T21:57:04.740Z,964.32
2017-12-04T21:58:04.722Z,964.34
2017-12-04T21:59:04.704Z,964.31
2017-12-04T22:00:04.686Z,964.34
2017-12-04T22:01:04.687Z,964.31
2017-12-04T22:02:04.650Z,964.35
2017-12-04T22:03:04.651Z,964.33
2017-12-04T22:04:04.616Z,964.32
2017-12-04T22:05:04.598Z,964.34
2017-12-04T22:06:04.585Z,964.4
2017-12-04T22:07:04.585Z,964.36
2017-12-04T22:08:04.544Z,964.35
2017-12-04T22:09:04.527Z,964.34
2017-12-04T22:10:04.508Z,964.34
2017-12-04T22:11:04.490Z,964.32
2017-12-04T22:12:04.472Z,964.33
2017-12-04T22:13:04.454Z,964.32
2017-12-04T22:14:04.436Z,964.33
2017-12-04T22:15:04.426Z,964.34
2017-12-04T22:16:04.402Z,964.35
2017-12-04T22:17:04.383Z,964.38
2017-12-04T22:18:04.367Z,964.34
2017-12-04T22:19:04.350Z,964.38
2017-12-04T22:20:04.331Z,964.41
2017-12-04T22:21:04.314Z,964.48
2017-12-04T22:22:04.296Z,964.47
2017-12-04T22:23:04.276Z,964.48
2017-12-04T22:24:04.260Z,964.5
2017-12-04T22:25:04.242Z,964.54
2017-12-04T22:26:04.223Z,964.58
2017-12-04T22:27:04.210Z,964.55
2017-12-04T22:28:04.188Z,964.62
2017-12-04T22:29:04.171Z,964.66
2017-12-04T22:30:04.153Z,964.61
2017-12-04T22:31:04.146Z,964.62
2017-12-04T22:32:04.118Z,964.62
2017-12-04T22:33:04.121Z,964.65
2017-12-04T22:34:04.082Z,964.65
2017-12-04T22:35:04.065Z,964.62
2017-12-04T22:36:04.047Z,964.61
2017-12-04T22:37:04.038Z,964.61
2017-12-04T22:38:04.013Z,964.64
2017-12-04T22:39:03.995Z,964.64
2017-12-04T22:40:03.995Z,964.63
2017-12-04T22:41:03.959Z,964.67
2017-12-04T22:42:03.940Z,964.68
2017-12-04T22:43:03.924Z,964.68
2017-12-04T22:44:03.913Z,964.7
2017-12-04T22:45:03.888Z,964.65
2017-12-04T22:46:10.213Z,964.64
2017-12-04T22:47:03.852Z,964.63
2017-12-04T22:48:03.834Z,964.66
2017-12-04T22:49:03.818Z,964.62
2017-12-04T22:50:03.819Z,964.7
2017-12-04T22:51:03.781Z,964.75
2017-12-04T22:52:03.765Z,964.76
2017-12-04T22:53:03.746Z,964.7
2017-12-04T22:54:03.728Z,964.73
2017-12-04T22:55:03.712Z,964.72
2017-12-04T22:56:03.694Z,964.71
2017-12-04T22:57:03.675Z,964.7
2017-12-04T22:58:03.660Z,964.71
2017-12-04T22:59:03.640Z,964.69
2017-12-04T23:00:03.623Z,964.77
2017-12-04T23:01:03.604Z,964.76
2017-12-04T23:02:03.645Z,964.72
2017-12-04T23:03:03.571Z,964.72
2017-12-04T23:04:03.552Z,964.75
2017-12-04T23:05:03.533Z,964.76
2017-12-04T23:06:03.518Z,964.73
2017-12-04T23:07:03.500Z,964.73
2017-12-04T23:08:03.482Z,964.73
2017-12-04T23:09:03.465Z,964.73
2017-12-04T23:10:03.462Z,964.74
2017-12-04T23:11:03.430Z,964.78
2017-12-04T23:12:03.411Z,964.77
2017-12-04T23:13:03.394Z,964.75